createdAt,value
2022-10-19T00:01:17.522Z,4.15
2022-10-19T00:03:52.351Z,3.97
2022-10-19T00:06:27.160Z,4.00
2022-10-19T00:09:02.169Z,3.94
2022-10-19T00:11:36.837Z,4.03
2022-10-19T00:14:13.306Z,4.02
2022-10-19T00:16:48.117Z,4.01
2022-10-19T00:19:22.763Z,3.99
2022-10-19T00:21:55.417Z,3.97
2022-10-19T00:24:28.370Z,3.93
2022-10-19T00:27:00.742Z,3.95
2022-10-19T00:29:33.094Z,4.05
2022-10-19T00:32:05.616Z,3.93
2022-10-19T00:34:37.962Z,3.92
2022-10-19T00:37:10.286Z,3.89
2022-10-19T00:39:43.362Z,3.88
2022-10-19T00:42:15.701Z,3.89
2022-10-19T00:45:05.146Z,3.93
2022-10-19T00:47:38.088Z,3.94
2022-10-19T00:50:14.017Z,3.95
2022-10-19T00:52:46.607Z,3.90
2022-10-19T00:55:19.781Z,3.80
2022-10-19T00:57:52.318Z,3.82
2022-10-19T01:00:24.719Z,3.80
2022-10-19T01:02:58.543Z,3.80
2022-10-19T01:05:33.619Z,3.79
2022-10-19T01:08:08.557Z,3.81
2022-10-19T01:10:50.553Z,3.67
2022-10-19T01:13:35.394Z,3.63
2022-10-19T01:16:15.054Z,3.60
2022-10-19T01:18:58.411Z,3.61
2022-10-19T01:21:35.302Z,3.60
2022-10-19T01:24:31.521Z,3.59
2022-10-19T01:27:27.325Z,3.59
2022-10-19T01:30:13.311Z,3.58
2022-10-19T01:33:04.191Z,3.59
2022-10-19T01:35:42.913Z,3.63
2022-10-19T01:38:24.662Z,3.57
2022-10-19T01:41:03.811Z,3.55
2022-10-19T01:43:44.873Z,3.52
2022-10-19T01:46:22.643Z,3.46
2022-10-19T01:49:00.161Z,3.44
2022-10-19T01:51:35.767Z,3.49
2022-10-19T01:54:13.522Z,3.40
2022-10-19T01:56:48.267Z,3.38
2022-10-19T01:59:21.398Z,3.41
2022-10-19T02:01:55.380Z,3.38
2022-10-19T02:04:28.153Z,3.36
2022-10-19T02:07:02.310Z,3.32
2022-10-19T02:09:35.119Z,3.25
2022-10-19T02:12:10.809Z,3.25
2022-10-19T02:14:45.649Z,3.22
2022-10-19T02:17:23.833Z,3.16
2022-10-19T02:19:57.512Z,3.17
2022-10-19T02:22:31.085Z,3.11
2022-10-19T02:25:04.266Z,3.15
2022-10-19T02:27:38.993Z,3.14
2022-10-19T02:30:13.990Z,3.14
2022-10-19T02:32:47.077Z,3.14
2022-10-19T02:35:19.578Z,3.12
2022-10-19T02:37:51.977Z,3.11
2022-10-19T02:40:25.374Z,3.22
2022-10-19T02:43:03.887Z,3.10
2022-10-19T02:45:39.002Z,2.82
2022-10-19T02:48:18.401Z,3.08
2022-10-19T02:50:51.324Z,3.12
2022-10-19T02:53:23.715Z,3.09
2022-10-19T02:55:56.055Z,3.07
2022-10-19T02:58:28.407Z,3.07
2022-10-19T03:01:00.719Z,3.06
2022-10-19T03:03:33.714Z,3.09
2022-10-19T03:06:06.084Z,3.09
2022-10-19T03:08:38.760Z,3.07
2022-10-19T03:11:11.081Z,3.10
2022-10-19T03:13:43.529Z,3.09
2022-10-19T03:16:15.887Z,3.08
2022-10-19T03:18:49.569Z,2.94
2022-10-19T03:21:21.870Z,3.07
2022-10-19T03:23:54.211Z,2.97
2022-10-19T03:26:26.899Z,2.94
2022-10-19T03:28:59.282Z,2.84
2022-10-19T03:31:32.021Z,2.80
2022-10-19T03:34:05.197Z,2.87
2022-10-19T03:36:39.207Z,2.79
2022-10-19T03:39:13.734Z,2.87
2022-10-19T03:41:46.281Z,2.86
2022-10-19T03:44:18.607Z,2.92
2022-10-19T03:46:51.211Z,2.85
2022-10-19T03:49:24.555Z,2.81
2022-10-19T03:51:56.890Z,2.85
2022-10-19T03:54:29.212Z,2.75
2022-10-19T03:57:01.545Z,2.75
2022-10-19T03:59:33.923Z,2.75
2022-10-19T04:02:06.282Z,2.78
2022-10-19T04:04:39.383Z,2.64
2022-10-19T04:07:11.662Z,2.68
2022-10-19T04:09:44.088Z,2.68
2022-10-19T04:12:16.390Z,2.69
2022-10-19T04:14:58.194Z,2.68
2022-10-19T04:17:30.640Z,2.73
2022-10-19T04:20:04.573Z,2.74
2022-10-19T04:22:36.874Z,2.67
2022-10-19T04:25:10.463Z,2.68
2022-10-19T04:27:42.740Z,2.61
2022-10-19T04:30:15.178Z,2.63
2022-10-19T04:32:47.468Z,2.66
2022-10-19T04:35:20.496Z,2.60
2022-10-19T04:37:52.767Z,2.53
2022-10-19T04:40:25.199Z,2.49
2022-10-19T04:42:57.816Z,2.42
2022-10-19T04:45:30.168Z,2.45
2022-10-19T04:48:02.510Z,2.37
2022-10-19T04:50:35.488Z,2.45
2022-10-19T04:53:07.818Z,2.37
2022-10-19T04:55:40.835Z,2.34
2022-10-19T04:58:13.144Z,2.35
2022-10-19T05:00:45.525Z,2.33
2022-10-19T05:03:17.987Z,2.31
2022-10-19T05:05:51.062Z,2.16
2022-10-19T05:08:23.330Z,2.15
2022-10-19T05:11:00.867Z,2.18
2022-10-19T05:13:34.017Z,2.13
2022-10-19T05:16:08.507Z,2.30
2022-10-19T05:18:41.251Z,2.31
2022-10-19T05:21:14.979Z,2.27
2022-10-19T05:23:50.512Z,2.29
2022-10-19T05:26:24.040Z,2.30
2022-10-19T05:28:59.728Z,2.27
2022-10-19T05:31:33.988Z,2.31
2022-10-19T05:36:44.197Z,2.28
2022-10-19T05:39:17.927Z,2.31
2022-10-19T05:41:50.461Z,2.30
2022-10-19T05:44:23.572Z,2.35
2022-10-19T05:46:55.881Z,2.35
2022-10-19T05:49:28.278Z,2.37
2022-10-19T05:52:01.277Z,2.45
2022-10-19T05:54:35.274Z,2.48
2022-10-19T05:57:07.583Z,2.48
2022-10-19T05:59:39.905Z,2.55
2022-10-19T06:02:13.703Z,2.58
2022-10-19T06:04:46.151Z,2.70
2022-10-19T06:07:19.136Z,2.80
2022-10-19T06:09:51.486Z,2.92
2022-10-19T06:12:25.163Z,2.89
2022-10-19T06:14:57.575Z,3.04
2022-10-19T06:17:29.905Z,3.11
2022-10-19T06:20:02.247Z,3.31
2022-10-19T06:22:35.255Z,3.47
2022-10-19T06:25:08.306Z,3.58
2022-10-19T06:27:40.676Z,3.75
2022-10-19T06:30:13.467Z,3.88
2022-10-19T06:32:45.884Z,4.11
2022-10-19T06:35:18.296Z,4.33
2022-10-19T06:37:51.320Z,4.57
2022-10-19T06:40:23.775Z,4.74
2022-10-19T06:42:56.254Z,5.00
2022-10-19T06:45:31.149Z,5.21
2022-10-19T06:48:07.817Z,5.47
2022-10-19T06:50:40.461Z,5.68
2022-10-19T06:53:13.478Z,5.91
2022-10-19T06:55:45.795Z,6.18
2022-10-19T06:58:18.244Z,6.42
2022-10-19T07:00:56.357Z,6.68
2022-10-19T07:03:29.708Z,6.89
2022-10-19T07:06:03.738Z,7.16
2022-10-19T07:08:39.471Z,7.43
2022-10-19T07:11:15.122Z,7.66
2022-10-19T07:13:47.971Z,7.82
2022-10-19T07:16:21.517Z,8.09
2022-10-19T07:18:54.197Z,8.37
2022-10-19T07:21:26.581Z,8.54
2022-10-19T07:23:59.828Z,8.83
2022-10-19T07:26:33.043Z,9.05
2022-10-19T07:29:05.391Z,9.28
2022-10-19T07:31:37.723Z,9.57
2022-10-19T07:34:12.202Z,9.79
2022-10-19T07:36:47.336Z,10.02
2022-10-19T07:39:20.786Z,10.31
2022-10-19T07:41:53.169Z,10.62
2022-10-19T07:44:25.757Z,10.93
2022-10-19T07:46:58.543Z,11.29
2022-10-19T07:49:30.867Z,11.62
2022-10-19T07:52:03.287Z,11.95
2022-10-19T07:54:36.335Z,12.20
2022-10-19T07:57:11.647Z,12.54
2022-10-19T07:59:44.052Z,12.77
2022-10-19T08:02:17.252Z,12.89
2022-10-19T08:05:01.053Z,13.19
2022-10-19T08:07:36.371Z,13.48
2022-10-19T08:10:10.169Z,13.77
2022-10-19T08:12:42.541Z,13.87
2022-10-19T08:15:14.991Z,14.22
2022-10-19T08:17:47.281Z,14.51
2022-10-19T08:20:19.885Z,14.59
2022-10-19T08:22:56.444Z,14.76
2022-10-19T08:25:31.938Z,14.87
2022-10-19T08:28:04.297Z,14.94
2022-10-19T08:30:36.849Z,15.01
2022-10-19T08:33:11.743Z,15.19
2022-10-19T08:35:44.098Z,15.32
2022-10-19T08:38:16.407Z,15.48
2022-10-19T08:40:49.557Z,15.52
2022-10-19T08:43:29.975Z,15.57
2022-10-19T08:46:15.521Z,15.83
2022-10-19T08:48:47.865Z,15.93
2022-10-19T08:51:20.386Z,15.96
2022-10-19T08:53:55.450Z,16.15
2022-10-19T08:56:50.006Z,16.36
2022-10-19T08:59:36.807Z,16.23
2022-10-19T09:02:16.011Z,16.36
2022-10-19T09:04:54.089Z,16.15
2022-10-19T09:07:28.683Z,16.24
2022-10-19T09:10:08.793Z,16.24
2022-10-19T09:12:47.678Z,16.29
2022-10-19T09:15:35.813Z,16.49
2022-10-19T09:18:10.645Z,16.60
2022-10-19T09:20:46.966Z,16.20
2022-10-19T09:23:29.199Z,16.21
2022-10-19T09:26:03.169Z,16.30
2022-10-19T09:28:45.079Z,16.38
2022-10-19T09:31:23.663Z,16.38
2022-10-19T09:34:00.088Z,16.60
2022-10-19T09:36:50.082Z,16.62
2022-10-19T09:39:26.987Z,16.58
2022-10-19T09:42:07.801Z,16.74
2022-10-19T09:44:41.415Z,16.77
2022-10-19T09:47:28.954Z,17.03
2022-10-19T09:50:15.822Z,17.16
2022-10-19T09:52:50.754Z,16.94
2022-10-19T09:55:28.156Z,17.00
2022-10-19T09:58:03.627Z,16.93
2022-10-19T10:00:39.487Z,16.94
2022-10-19T10:03:24.211Z,17.16
2022-10-19T10:05:58.983Z,17.11
2022-10-19T10:08:35.229Z,17.17
2022-10-19T10:11:10.915Z,17.09
2022-10-19T10:13:48.878Z,17.07
2022-10-19T10:16:23.597Z,17.35
2022-10-19T10:18:58.393Z,17.57
2022-10-19T10:21:34.012Z,17.78
2022-10-19T10:24:16.845Z,17.83
2022-10-19T10:26:51.537Z,18.08
2022-10-19T10:29:25.739Z,18.11
2022-10-19T10:32:04.208Z,18.17
2022-10-19T10:34:49.795Z,18.42
2022-10-19T10:37:30.178Z,18.78
2022-10-19T10:40:05.039Z,19.11
2022-10-19T10:42:43.755Z,19.36
2022-10-19T10:45:18.781Z,19.16
2022-10-19T10:47:52.776Z,18.87
2022-10-19T10:50:30.243Z,18.99
2022-10-19T10:53:04.669Z,19.04
2022-10-19T10:55:37.017Z,19.28
2022-10-19T10:58:15.385Z,19.35
2022-10-19T11:00:51.003Z,19.26
2022-10-19T11:03:26.416Z,18.85
2022-10-19T11:06:00.483Z,18.81
2022-10-19T11:08:40.522Z,19.01
2022-10-19T11:11:17.002Z,18.95
2022-10-19T11:13:56.697Z,19.07
2022-10-19T11:16:33.757Z,18.97
2022-10-19T11:21:57.022Z,18.99
2022-10-19T11:24:41.900Z,19.21
2022-10-19T11:27:25.989Z,19.45
2022-10-19T11:30:07.480Z,19.42
2022-10-19T11:32:55.056Z,19.35
2022-10-19T11:35:38.287Z,19.48
2022-10-19T11:38:29.886Z,19.26
2022-10-19T11:41:19.233Z,19.22
2022-10-19T11:44:16.543Z,19.33
2022-10-19T11:47:00.851Z,19.43
2022-10-19T11:49:49.094Z,19.40
2022-10-19T11:52:34.881Z,19.61
2022-10-19T11:55:33.795Z,19.47
2022-10-19T11:58:34.468Z,19.84
2022-10-19T12:01:14.888Z,19.94
2022-10-19T12:04:13.654Z,20.15
2022-10-19T12:06:55.319Z,20.08
2022-10-19T12:09:41.796Z,20.01
2022-10-19T12:12:32.849Z,20.34
2022-10-19T12:15:20.058Z,20.02
2022-10-19T12:17:55.239Z,20.26
2022-10-19T12:20:34.591Z,20.33
2022-10-19T12:23:23.005Z,20.34
2022-10-19T12:25:58.011Z,20.34
2022-10-19T12:28:32.680Z,20.28
2022-10-19T12:31:06.634Z,20.26
2022-10-19T12:33:46.631Z,20.09
2022-10-19T12:36:30.177Z,20.16
2022-10-19T12:39:10.036Z,19.92
2022-10-19T12:41:51.556Z,19.85
2022-10-19T12:45:01.212Z,19.66
2022-10-19T12:47:33.929Z,19.45
2022-10-19T12:50:07.204Z,19.42
2022-10-19T12:52:43.723Z,19.40
2022-10-19T12:55:34.124Z,19.47
2022-10-19T12:58:20.547Z,19.38
2022-10-19T13:01:00.315Z,19.24
2022-10-19T13:03:34.963Z,19.04
2022-10-19T13:06:12.479Z,19.00
2022-10-19T13:08:54.600Z,18.96
2022-10-19T13:11:27.220Z,18.94
2022-10-19T13:14:29.884Z,18.94
2022-10-19T13:17:03.475Z,18.97
2022-10-19T13:19:36.247Z,18.83
2022-10-19T13:22:25.335Z,18.74
2022-10-19T13:25:26.159Z,18.72
2022-10-19T13:28:18.075Z,18.57
2022-10-19T13:31:09.422Z,18.63
2022-10-19T13:33:49.304Z,18.65
2022-10-19T13:36:34.543Z,18.64
2022-10-19T13:39:16.539Z,18.68
2022-10-19T13:41:53.695Z,18.67
2022-10-19T13:44:35.859Z,18.48
2022-10-19T13:47:43.568Z,18.47
2022-10-19T13:50:25.777Z,18.39
2022-10-19T13:53:34.852Z,18.43
2022-10-19T13:56:35.531Z,18.54
2022-10-19T13:59:39.722Z,18.44
2022-10-19T14:02:42.112Z,18.22
2022-10-19T14:05:49.778Z,18.16
2022-10-19T14:08:47.937Z,18.13
2022-10-19T14:11:25.197Z,18.26
2022-10-19T14:14:14.805Z,18.39
2022-10-19T14:16:50.553Z,18.37
2022-10-19T14:19:26.595Z,18.38
2022-10-19T14:22:01.647Z,18.28
2022-10-19T14:24:36.230Z,18.09
2022-10-19T14:27:15.624Z,18.21
2022-10-19T14:29:50.180Z,18.25
2022-10-19T14:32:25.879Z,18.21
2022-10-19T14:37:43.273Z,18.03
2022-10-19T14:40:27.918Z,18.01
2022-10-19T14:43:01.305Z,18.00
2022-10-19T14:45:33.658Z,17.98
2022-10-19T14:48:07.242Z,17.86
2022-10-19T14:50:43.014Z,17.78
2022-10-19T14:53:30.456Z,17.71
2022-10-19T14:56:07.722Z,17.66
2022-10-19T14:58:47.109Z,17.59
2022-10-19T15:01:20.611Z,17.49
2022-10-19T15:03:53.039Z,17.36
2022-10-19T15:06:27.955Z,17.22
2022-10-19T15:09:03.568Z,16.99
2022-10-19T15:11:39.882Z,16.89
2022-10-19T15:14:25.723Z,16.76
2022-10-19T15:17:00.648Z,16.77
2022-10-19T15:19:40.755Z,16.77
2022-10-19T15:22:18.248Z,16.80
2022-10-19T15:25:02.072Z,16.78
2022-10-19T15:27:36.616Z,16.74
2022-10-19T15:30:25.392Z,16.75
2022-10-19T15:33:13.612Z,16.64
2022-10-19T15:35:46.033Z,16.55
2022-10-19T15:38:24.128Z,16.48
2022-10-19T15:40:58.678Z,16.46
2022-10-19T15:43:48.032Z,16.36
2022-10-19T15:46:30.851Z,16.14
2022-10-19T15:49:24.877Z,16.12
2022-10-19T15:51:57.202Z,16.03
2022-10-19T15:54:29.507Z,15.95
2022-10-19T15:57:01.878Z,15.87
2022-10-19T15:59:34.864Z,15.72
2022-10-19T16:02:13.151Z,15.69
2022-10-19T16:04:45.458Z,15.65
2022-10-19T16:07:22.586Z,15.57
2022-10-19T16:09:54.971Z,15.53
2022-10-19T16:12:27.548Z,15.46
2022-10-19T16:15:00.713Z,15.38
2022-10-19T16:17:33.345Z,15.35
2022-10-19T16:20:06.598Z,15.27
2022-10-19T16:22:39.054Z,15.19
2022-10-19T16:25:11.719Z,15.15
2022-10-19T16:27:44.344Z,15.10
2022-10-19T16:30:17.517Z,15.04
2022-10-19T16:32:49.845Z,14.93
2022-10-19T16:35:23.199Z,14.89
2022-10-19T16:37:55.567Z,14.74
2022-10-19T16:40:28.912Z,14.73
2022-10-19T16:43:01.259Z,14.48
2022-10-19T16:45:34.829Z,14.53
2022-10-19T16:48:07.180Z,14.53
2022-10-19T16:50:39.535Z,14.55
2022-10-19T16:53:11.873Z,14.51
2022-10-19T16:55:44.235Z,14.46
2022-10-19T16:58:16.600Z,14.30
2022-10-19T17:00:49.611Z,14.21
2022-10-19T17:03:22.189Z,14.20
2022-10-19T17:05:54.520Z,14.02
2022-10-19T17:08:37.207Z,13.80
2022-10-19T17:11:21.662Z,13.69
2022-10-19T17:13:56.295Z,13.51
2022-10-19T17:16:31.019Z,13.56
2022-10-19T17:19:04.687Z,13.51
2022-10-19T17:21:38.840Z,13.35
2022-10-19T17:24:18.456Z,13.20
2022-10-19T17:26:53.719Z,13.10
2022-10-19T17:29:26.064Z,13.10
2022-10-19T17:31:59.209Z,13.10
2022-10-19T17:34:31.700Z,12.82
2022-10-19T17:37:04.074Z,12.58
2022-10-19T17:39:36.428Z,12.32
2022-10-19T17:42:08.731Z,12.34
2022-10-19T17:44:41.074Z,12.37
2022-10-19T17:47:14.095Z,12.26
2022-10-19T17:49:46.445Z,12.23
2022-10-19T17:52:18.757Z,12.16
2022-10-19T17:55:11.101Z,12.10
2022-10-19T17:57:43.351Z,12.02
2022-10-19T18:00:15.831Z,11.95
2022-10-19T18:02:48.951Z,11.92
2022-10-19T18:05:21.339Z,11.90
2022-10-19T18:07:54.837Z,11.90
2022-10-19T18:10:27.170Z,11.64
2022-10-19T18:12:59.530Z,11.67
2022-10-19T18:15:31.898Z,11.67
2022-10-19T18:18:04.916Z,11.66
2022-10-19T18:20:38.818Z,11.74
2022-10-19T18:23:11.582Z,11.72
2022-10-19T18:25:53.917Z,11.71
2022-10-19T18:28:26.907Z,11.50
2022-10-19T18:31:04.974Z,11.48
2022-10-19T18:33:38.373Z,11.42
2022-10-19T18:36:10.795Z,11.43
2022-10-19T18:38:43.134Z,11.24
2022-10-19T18:41:15.472Z,11.22
2022-10-19T18:43:50.923Z,11.25
2022-10-19T18:46:24.802Z,10.79
2022-10-19T18:48:59.392Z,10.99
2022-10-19T18:51:31.969Z,11.04
2022-10-19T18:54:04.949Z,10.98
2022-10-19T18:56:37.334Z,10.97
2022-10-19T18:59:09.706Z,10.98
2022-10-19T19:01:42.151Z,10.72
2022-10-19T19:04:15.170Z,10.80
2022-10-19T19:06:47.548Z,10.64
2022-10-19T19:09:20.508Z,10.57
2022-10-19T19:11:57.007Z,10.54
2022-10-19T19:14:29.313Z,10.58
2022-10-19T19:17:01.702Z,10.51
2022-10-19T19:19:34.741Z,10.52
2022-10-19T19:22:08.799Z,10.46
2022-10-19T19:24:41.435Z,10.41
2022-10-19T19:27:13.890Z,10.13
2022-10-19T19:29:46.171Z,10.13
2022-10-19T19:32:18.554Z,10.16
2022-10-19T19:34:54.905Z,10.09
2022-10-19T19:37:27.388Z,10.04
2022-10-19T19:39:59.721Z,9.99
2022-10-19T19:42:32.023Z,9.97
2022-10-19T19:45:05.139Z,9.93
2022-10-19T19:47:37.870Z,9.86
2022-10-19T19:50:11.075Z,9.84
2022-10-19T19:52:43.435Z,9.62
2022-10-19T19:55:15.930Z,9.39
2022-10-19T19:57:49.331Z,9.51
2022-10-19T20:00:22.474Z,9.49
2022-10-19T20:02:56.119Z,9.60
2022-10-19T20:05:42.942Z,9.54
2022-10-19T20:08:15.384Z,9.58
2022-10-19T20:10:47.695Z,9.18
2022-10-19T20:13:20.051Z,9.20
2022-10-19T20:15:53.118Z,9.24
2022-10-19T20:18:25.447Z,9.20
2022-10-19T20:21:01.739Z,9.05
2022-10-19T20:23:34.128Z,9.10
2022-10-19T20:26:08.344Z,9.13
2022-10-19T20:28:40.799Z,9.06
2022-10-19T20:31:14.009Z,8.99
2022-10-19T20:33:47.221Z,8.94
2022-10-19T20:36:22.010Z,8.96
2022-10-19T20:38:56.123Z,9.03
2022-10-19T20:41:28.662Z,9.11
2022-10-19T20:44:01.122Z,9.10
2022-10-19T20:46:33.467Z,9.14
2022-10-19T20:49:06.727Z,9.11
2022-10-19T20:51:39.698Z,9.15
2022-10-19T20:54:13.048Z,9.10
2022-10-19T20:56:45.642Z,9.09
2022-10-19T20:59:20.035Z,9.10
2022-10-19T21:01:55.107Z,9.03
2022-10-19T21:04:27.487Z,9.20
2022-10-19T21:07:00.706Z,9.15
2022-10-19T21:09:33.323Z,9.25
2022-10-19T21:12:05.659Z,9.44
2022-10-19T21:14:38.209Z,9.51
2022-10-19T21:17:10.526Z,9.62
2022-10-19T21:19:42.882Z,9.59
2022-10-19T21:22:15.863Z,9.77
2022-10-19T21:24:48.192Z,9.90
2022-10-19T21:27:20.531Z,9.91
2022-10-19T21:29:53.024Z,10.11
2022-10-19T21:32:25.724Z,10.26
2022-10-19T21:34:58.028Z,10.35
2022-10-19T21:37:30.997Z,10.49
2022-10-19T21:40:03.920Z,10.58
2022-10-19T21:42:36.231Z,10.65
2022-10-19T21:45:30.357Z,10.72
2022-10-19T21:48:02.605Z,10.86
2022-10-19T21:50:34.935Z,10.96
2022-10-19T21:53:08.012Z,10.97
2022-10-19T21:55:40.363Z,11.03
2022-10-19T21:58:12.695Z,11.17
2022-10-19T22:00:45.050Z,11.24
2022-10-19T22:03:18.064Z,11.33
2022-10-19T22:05:50.778Z,11.39
2022-10-19T22:08:23.891Z,11.47
2022-10-19T22:10:56.255Z,11.47
2022-10-19T22:13:28.533Z,11.55
2022-10-19T22:16:05.089Z,11.60
2022-10-19T22:18:37.630Z,11.49
2022-10-19T22:21:12.535Z,11.62
2022-10-19T22:23:49.758Z,11.45
2022-10-19T22:26:25.378Z,11.58
2022-10-19T22:28:59.158Z,11.74
2022-10-19T22:31:32.642Z,11.60
2022-10-19T22:34:07.415Z,11.82
2022-10-19T22:36:39.756Z,11.88
2022-10-19T22:39:13.571Z,12.00
2022-10-19T22:42:44.011Z,12.00
2022-10-19T22:46:30.098Z,12.01
2022-10-19T22:50:16.392Z,11.78
2022-10-19T22:53:07.071Z,11.76
2022-10-19T22:55:40.069Z,11.85
2022-10-19T23:00:59.970Z,11.89
2022-10-19T23:03:32.369Z,12.02
2022-10-19T23:06:04.753Z,12.03
2022-10-19T23:08:37.549Z,12.10
2022-10-19T23:11:10.951Z,11.95
2022-10-19T23:13:43.305Z,11.82
2022-10-19T23:16:15.868Z,11.92
2022-10-19T23:18:48.222Z,11.92
2022-10-19T23:21:20.699Z,11.91
2022-10-19T23:23:53.567Z,11.92
2022-10-19T23:26:26.515Z,11.87
2022-10-19T23:28:58.831Z,11.77
2022-10-19T23:31:32.201Z,11.90
2022-10-19T23:34:04.447Z,11.84
2022-10-19T23:36:36.885Z,11.78
2022-10-19T23:39:09.131Z,11.77
2022-10-19T23:41:42.148Z,11.85
2022-10-19T23:44:14.434Z,11.67
2022-10-19T23:46:46.844Z,11.80
2022-10-19T23:49:19.277Z,11.80
2022-10-19T23:51:51.563Z,11.74
2022-10-19T23:54:23.987Z,11.75
2022-10-19T23:56:56.903Z,11.76
2022-10-19T23:59:29.381Z,11.56
